sensor_id;sensor_type;location;lat;lon;timestamp;temperature;humidity
7842;DHT22;3966;51.052;13.820;2023-05-10T00:00:57;14.30;95.90
7842;DHT22;3966;51.052;13.820;2023-05-10T00:03:22;14.20;96.10
7842;DHT22;3966;51.052;13.820;2023-05-10T00:05:48;14.20;96.40
7842;DHT22;3966;51.052;13.820;2023-05-10T00:08:14;14.30;96.60
7842;DHT22;3966;51.052;13.820;2023-05-10T00:10:40;14.20;96.30
7842;DHT22;3966;51.052;13.820;2023-05-10T00:13:06;14.20;96.90
7842;DHT22;3966;51.052;13.820;2023-05-10T00:15:32;14.20;96.60
7842;DHT22;3966;51.052;13.820;2023-05-10T00:17:57;14.10;96.90
7842;DHT22;3966;51.052;13.820;2023-05-10T00:20:23;14.10;97.60
7842;DHT22;3966;51.052;13.820;2023-05-10T00:22:49;14.10;97.80
7842;DHT22;3966;51.052;13.820;2023-05-10T00:25:14;14.10;97.80
7842;DHT22;3966;51.052;13.820;2023-05-10T00:27:40;14.10;97.70
7842;DHT22;3966;51.052;13.820;2023-05-10T00:30:06;14.00;98.30
7842;DHT22;3966;51.052;13.820;2023-05-10T00:32:32;14.00;98.20
7842;DHT22;3966;51.052;13.820;2023-05-10T00:34:58;13.90;98.70
7842;DHT22;3966;51.052;13.820;2023-05-10T00:37:24;13.90;97.90
7842;DHT22;3966;51.052;13.820;2023-05-10T00:39:49;13.90;98.50
7842;DHT22;3966;51.052;13.820;2023-05-10T00:42:15;13.80;98.90
7842;DHT22;3966;51.052;13.820;2023-05-10T00:44:41;13.80;99.50
7842;DHT22;3966;51.052;13.820;2023-05-10T00:47:07;13.70;99.60
7842;DHT22;3966;51.052;13.820;2023-05-10T00:49:34;13.70;99.90
7842;DHT22;3966;51.052;13.820;2023-05-10T00:51:59;13.60;99.90
7842;DHT22;3966;51.052;13.820;2023-05-10T00:54:25;13.60;99.90
7842;DHT22;3966;51.052;13.820;2023-05-10T00:56:51;13.60;99.90
7842;DHT22;3966;51.052;13.820;2023-05-10T00:59:17;13.60;99.90
7842;DHT22;3966;51.052;13.820;2023-05-10T01:18:38;13.50;99.90
7842;DHT22;3966;51.052;13.820;2023-05-10T01:32:21;13.30;99.90
7842;DHT22;3966;51.052;13.820;2023-05-10T01:35:02;13.30;99.90
7842;DHT22;3966;51.052;13.820;2023-05-10T01:37:45;13.30;99.90
7842;DHT22;3966;51.052;13.820;2023-05-10T01:40:36;13.30;99.90
7842;DHT22;3966;51.052;13.820;2023-05-10T01:43:04;13.20;99.90
7842;DHT22;3966;51.052;13.820;2023-05-10T01:45:38;13.20;99.90
7842;DHT22;3966;51.052;13.820;2023-05-10T01:48:08;13.20;99.90
7842;DHT22;3966;51.052;13.820;2023-05-10T01:50:36;13.10;99.90
7842;DHT22;3966;51.052;13.820;2023-05-10T01:53:06;13.10;99.90
7842;DHT22;3966;51.052;13.820;2023-05-10T01:55:35;13.10;99.90
7842;DHT22;3966;51.052;13.820;2023-05-10T01:58:09;13.00;99.90
7842;DHT22;3966;51.052;13.820;2023-05-10T02:00:36;13.00;99.90
7842;DHT22;3966;51.052;13.820;2023-05-10T02:03:07;13.00;99.90
7842;DHT22;3966;51.052;13.820;2023-05-10T02:05:34;13.00;99.90
7842;DHT22;3966;51.052;13.820;2023-05-10T02:08:01;12.90;99.90
7842;DHT22;3966;51.052;13.820;2023-05-10T02:10:29;12.90;99.90
7842;DHT22;3966;51.052;13.820;2023-05-10T02:12:58;12.90;99.90
7842;DHT22;3966;51.052;13.820;2023-05-10T02:15:25;12.90;99.90
7842;DHT22;3966;51.052;13.820;2023-05-10T02:17:53;12.90;99.90
7842;DHT22;3966;51.052;13.820;2023-05-10T02:20:20;12.80;99.90
7842;DHT22;3966;51.052;13.820;2023-05-10T02:22:48;12.80;99.90
7842;DHT22;3966;51.052;13.820;2023-05-10T02:25:14;12.80;99.90
7842;DHT22;3966;51.052;13.820;2023-05-10T02:27:42;12.70;99.90
7842;DHT22;3966;51.052;13.820;2023-05-10T02:30:10;12.70;99.90
7842;DHT22;3966;51.052;13.820;2023-05-10T02:32:36;12.70;99.90
7842;DHT22;3966;51.052;13.820;2023-05-10T02:35:03;12.80;99.90
7842;DHT22;3966;51.052;13.820;2023-05-10T02:37:30;12.70;99.90
7842;DHT22;3966;51.052;13.820;2023-05-10T02:39:56;12.70;99.90
7842;DHT22;3966;51.052;13.820;2023-05-10T02:42:26;12.70;99.90
7842;DHT22;3966;51.052;13.820;2023-05-10T02:44:57;12.60;99.90
7842;DHT22;3966;51.052;13.820;2023-05-10T02:47:24;12.50;99.90
7842;DHT22;3966;51.052;13.820;2023-05-10T02:49:51;12.50;99.90
7842;DHT22;3966;51.052;13.820;2023-05-10T02:52:23;12.50;99.90
7842;DHT22;3966;51.052;13.820;2023-05-10T02:54:54;12.50;99.90
7842;DHT22;3966;51.052;13.820;2023-05-10T02:57:25;12.50;99.90
7842;DHT22;3966;51.052;13.820;2023-05-10T02:59:51;12.50;99.90
7842;DHT22;3966;51.052;13.820;2023-05-10T03:02:17;12.50;99.90
7842;DHT22;3966;51.052;13.820;2023-05-10T03:04:42;12.50;99.90
7842;DHT22;3966;51.052;13.820;2023-05-10T03:07:08;12.50;99.90
7842;DHT22;3966;51.052;13.820;2023-05-10T03:09:34;12.50;99.90
7842;DHT22;3966;51.052;13.820;2023-05-10T03:12:02;12.50;99.90
7842;DHT22;3966;51.052;13.820;2023-05-10T03:15:00;12.50;99.90
7842;DHT22;3966;51.052;13.820;2023-05-10T03:17:50;12.40;99.90
7842;DHT22;3966;51.052;13.820;2023-05-10T03:20:29;12.40;99.90
7842;DHT22;3966;51.052;13.820;2023-05-10T03:23:20;12.40;99.90
7842;DHT22;3966;51.052;13.820;2023-05-10T03:25:48;12.40;99.90
7842;DHT22;3966;51.052;13.820;2023-05-10T03:28:16;12.40;99.90
7842;DHT22;3966;51.052;13.820;2023-05-10T03:30:43;12.40;99.90
7842;DHT22;3966;51.052;13.820;2023-05-10T03:33:09;12.30;99.90
7842;DHT22;3966;51.052;13.820;2023-05-10T03:35:34;12.20;99.90
7842;DHT22;3966;51.052;13.820;2023-05-10T03:38:00;12.20;99.90
7842;DHT22;3966;51.052;13.820;2023-05-10T03:40:27;12.20;99.90
7842;DHT22;3966;51.052;13.820;2023-05-10T03:42:58;12.30;99.90
7842;DHT22;3966;51.052;13.820;2023-05-10T03:45:23;12.30;99.90
7842;DHT22;3966;51.052;13.820;2023-05-10T03:47:49;12.30;99.90
7842;DHT22;3966;51.052;13.820;2023-05-10T03:50:15;12.30;99.90
7842;DHT22;3966;51.052;13.820;2023-05-10T03:52:40;12.20;99.90
7842;DHT22;3966;51.052;13.820;2023-05-10T03:55:06;12.30;99.90
7842;DHT22;3966;51.052;13.820;2023-05-10T03:57:33;12.30;99.90
7842;DHT22;3966;51.052;13.820;2023-05-10T03:59:58;12.20;99.90
7842;DHT22;3966;51.052;13.820;2023-05-10T04:02:24;12.30;99.90
7842;DHT22;3966;51.052;13.820;2023-05-10T04:04:50;12.30;99.90
7842;DHT22;3966;51.052;13.820;2023-05-10T04:07:16;12.30;99.90
7842;DHT22;3966;51.052;13.820;2023-05-10T04:09:41;12.30;99.90
7842;DHT22;3966;51.052;13.820;2023-05-10T04:12:07;12.30;99.90
7842;DHT22;3966;51.052;13.820;2023-05-10T04:14:33;12.30;99.90
7842;DHT22;3966;51.052;13.820;2023-05-10T04:16:58;12.30;99.90
7842;DHT22;3966;51.052;13.820;2023-05-10T04:19:28;12.40;99.90
7842;DHT22;3966;51.052;13.820;2023-05-10T04:21:54;12.40;99.90
7842;DHT22;3966;51.052;13.820;2023-05-10T04:24:19;12.40;99.90
7842;DHT22;3966;51.052;13.820;2023-05-10T04:26:45;12.50;99.90
7842;DHT22;3966;51.052;13.820;2023-05-10T04:29:11;12.40;99.90
7842;DHT22;3966;51.052;13.820;2023-05-10T04:31:36;12.50;99.90
7842;DHT22;3966;51.052;13.820;2023-05-10T04:34:02;12.40;99.90
7842;DHT22;3966;51.052;13.820;2023-05-10T04:36:28;12.40;99.90
7842;DHT22;3966;51.052;13.820;2023-05-10T04:38:54;12.40;99.90
7842;DHT22;3966;51.052;13.820;2023-05-10T04:41:19;12.40;99.90
7842;DHT22;3966;51.052;13.820;2023-05-10T04:43:46;12.40;99.90
7842;DHT22;3966;51.052;13.820;2023-05-10T04:46:11;12.40;99.90
7842;DHT22;3966;51.052;13.820;2023-05-10T04:48:37;12.30;99.90
7842;DHT22;3966;51.052;13.820;2023-05-10T04:51:03;12.40;99.90
7842;DHT22;3966;51.052;13.820;2023-05-10T04:53:29;12.40;99.90
7842;DHT22;3966;51.052;13.820;2023-05-10T04:55:55;12.40;99.90
7842;DHT22;3966;51.052;13.820;2023-05-10T04:58:20;12.50;99.90
7842;DHT22;3966;51.052;13.820;2023-05-10T05:00:46;12.50;99.90
7842;DHT22;3966;51.052;13.820;2023-05-10T05:03:12;12.50;99.90
7842;DHT22;3966;51.052;13.820;2023-05-10T05:05:37;12.60;99.90
7842;DHT22;3966;51.052;13.820;2023-05-10T05:08:03;12.60;99.90
7842;DHT22;3966;51.052;13.820;2023-05-10T05:10:29;12.60;99.90
7842;DHT22;3966;51.052;13.820;2023-05-10T05:12:55;12.60;99.90
7842;DHT22;3966;51.052;13.820;2023-05-10T05:15:21;12.70;99.90
7842;DHT22;3966;51.052;13.820;2023-05-10T05:17:46;12.70;99.90
7842;DHT22;3966;51.052;13.820;2023-05-10T05:20:12;12.70;99.90
7842;DHT22;3966;51.052;13.820;2023-05-10T05:22:38;12.80;99.90
7842;DHT22;3966;51.052;13.820;2023-05-10T05:25:04;12.80;99.90
7842;DHT22;3966;51.052;13.820;2023-05-10T05:27:31;12.80;99.90
7842;DHT22;3966;51.052;13.820;2023-05-10T05:29:57;12.90;99.90
7842;DHT22;3966;51.052;13.820;2023-05-10T05:32:24;12.80;99.90
7842;DHT22;3966;51.052;13.820;2023-05-10T05:34:50;12.80;99.90
7842;DHT22;3966;51.052;13.820;2023-05-10T05:37:17;12.90;99.90
7842;DHT22;3966;51.052;13.820;2023-05-10T05:39:44;12.90;99.90
7842;DHT22;3966;51.052;13.820;2023-05-10T05:42:10;13.00;99.90
7842;DHT22;3966;51.052;13.820;2023-05-10T05:44:36;13.00;99.90
7842;DHT22;3966;51.052;13.820;2023-05-10T05:47:02;13.10;99.90
7842;DHT22;3966;51.052;13.820;2023-05-10T05:49:28;13.20;99.90
7842;DHT22;3966;51.052;13.820;2023-05-10T05:51:54;13.20;99.90
7842;DHT22;3966;51.052;13.820;2023-05-10T05:54:20;13.30;99.90
7842;DHT22;3966;51.052;13.820;2023-05-10T05:56:45;13.30;99.90
7842;DHT22;3966;51.052;13.820;2023-05-10T05:59:11;13.30;99.90
7842;DHT22;3966;51.052;13.820;2023-05-10T06:01:37;13.40;99.90
7842;DHT22;3966;51.052;13.820;2023-05-10T06:04:03;13.40;99.90
7842;DHT22;3966;51.052;13.820;2023-05-10T06:06:28;13.50;99.90
7842;DHT22;3966;51.052;13.820;2023-05-10T06:08:54;13.60;99.90
7842;DHT22;3966;51.052;13.820;2023-05-10T06:11:20;13.60;99.90
7842;DHT22;3966;51.052;13.820;2023-05-10T06:13:47;13.70;99.90
7842;DHT22;3966;51.052;13.820;2023-05-10T06:16:12;13.80;99.90
7842;DHT22;3966;51.052;13.820;2023-05-10T06:18:39;13.90;99.90
7842;DHT22;3966;51.052;13.820;2023-05-10T06:21:04;13.90;99.90
7842;DHT22;3966;51.052;13.820;2023-05-10T06:23:30;13.90;99.90
7842;DHT22;3966;51.052;13.820;2023-05-10T06:25:56;14.10;99.90
7842;DHT22;3966;51.052;13.820;2023-05-10T06:28:21;14.10;99.90
7842;DHT22;3966;51.052;13.820;2023-05-10T06:30:47;14.20;99.90
7842;DHT22;3966;51.052;13.820;2023-05-10T06:33:13;14.30;99.90
7842;DHT22;3966;51.052;13.820;2023-05-10T06:35:39;14.30;99.90
7842;DHT22;3966;51.052;13.820;2023-05-10T06:38:04;14.40;99.90
7842;DHT22;3966;51.052;13.820;2023-05-10T06:40:30;14.40;99.90
7842;DHT22;3966;51.052;13.820;2023-05-10T06:42:56;14.50;99.90
7842;DHT22;3966;51.052;13.820;2023-05-10T06:45:21;14.60;99.90
7842;DHT22;3966;51.052;13.820;2023-05-10T06:47:47;14.70;99.90
7842;DHT22;3966;51.052;13.820;2023-05-10T06:50:13;14.70;99.90
7842;DHT22;3966;51.052;13.820;2023-05-10T06:52:38;14.80;99.90
7842;DHT22;3966;51.052;13.820;2023-05-10T06:55:05;14.90;99.90
7842;DHT22;3966;51.052;13.820;2023-05-10T06:57:31;15.00;99.90
7842;DHT22;3966;51.052;13.820;2023-05-10T06:59:58;15.00;99.90
7842;DHT22;3966;51.052;13.820;2023-05-10T07:02:23;15.10;99.90
7842;DHT22;3966;51.052;13.820;2023-05-10T07:04:49;15.20;99.90
7842;DHT22;3966;51.052;13.820;2023-05-10T07:07:17;15.30;99.90
7842;DHT22;3966;51.052;13.820;2023-05-10T07:09:42;15.40;99.90
7842;DHT22;3966;51.052;13.820;2023-05-10T07:12:08;15.40;99.90
7842;DHT22;3966;51.052;13.820;2023-05-10T07:14:33;15.40;99.90
7842;DHT22;3966;51.052;13.820;2023-05-10T07:16:59;15.50;99.90
7842;DHT22;3966;51.052;13.820;2023-05-10T07:19:25;15.60;99.90
7842;DHT22;3966;51.052;13.820;2023-05-10T07:21:51;15.60;99.90
7842;DHT22;3966;51.052;13.820;2023-05-10T07:24:16;15.60;99.90
7842;DHT22;3966;51.052;13.820;2023-05-10T07:26:43;15.60;99.90
7842;DHT22;3966;51.052;13.820;2023-05-10T07:29:08;15.60;99.90
7842;DHT22;3966;51.052;13.820;2023-05-10T07:31:34;15.70;99.90
7842;DHT22;3966;51.052;13.820;2023-05-10T07:34:00;15.80;99.90
7842;DHT22;3966;51.052;13.820;2023-05-10T07:36:25;15.90;99.90
7842;DHT22;3966;51.052;13.820;2023-05-10T07:38:51;15.90;99.90
7842;DHT22;3966;51.052;13.820;2023-05-10T07:41:17;16.00;99.90
7842;DHT22;3966;51.052;13.820;2023-05-10T07:43:43;16.00;99.90
7842;DHT22;3966;51.052;13.820;2023-05-10T07:46:09;16.00;99.90
7842;DHT22;3966;51.052;13.820;2023-05-10T07:48:36;16.10;99.90
7842;DHT22;3966;51.052;13.820;2023-05-10T07:51:02;16.20;99.90
7842;DHT22;3966;51.052;13.820;2023-05-10T07:53:28;16.30;99.90
7842;DHT22;3966;51.052;13.820;2023-05-10T07:55:57;16.30;99.90
7842;DHT22;3966;51.052;13.820;2023-05-10T07:58:23;16.30;99.90
7842;DHT22;3966;51.052;13.820;2023-05-10T08:00:49;16.40;99.90
7842;DHT22;3966;51.052;13.820;2023-05-10T08:03:15;16.50;99.90
7842;DHT22;3966;51.052;13.820;2023-05-10T08:05:41;16.50;99.90
7842;DHT22;3966;51.052;13.820;2023-05-10T08:08:07;16.60;99.90
7842;DHT22;3966;51.052;13.820;2023-05-10T08:10:32;16.60;99.90
7842;DHT22;3966;51.052;13.820;2023-05-10T08:12:58;16.70;99.90
7842;DHT22;3966;51.052;13.820;2023-05-10T08:15:24;16.80;99.90
7842;DHT22;3966;51.052;13.820;2023-05-10T08:17:51;16.90;99.90
7842;DHT22;3966;51.052;13.820;2023-05-10T08:20:17;16.90;99.90
7842;DHT22;3966;51.052;13.820;2023-05-10T08:22:45;16.90;99.90
7842;DHT22;3966;51.052;13.820;2023-05-10T08:25:11;17.00;99.90
7842;DHT22;3966;51.052;13.820;2023-05-10T08:27:36;17.00;99.90
7842;DHT22;3966;51.052;13.820;2023-05-10T08:30:02;17.10;99.90
7842;DHT22;3966;51.052;13.820;2023-05-10T08:32:28;17.20;99.90
7842;DHT22;3966;51.052;13.820;2023-05-10T08:34:53;17.30;99.90
7842;DHT22;3966;51.052;13.820;2023-05-10T08:37:19;17.40;99.90
7842;DHT22;3966;51.052;13.820;2023-05-10T08:39:45;17.40;99.90
7842;DHT22;3966;51.052;13.820;2023-05-10T08:42:16;17.50;99.90
7842;DHT22;3966;51.052;13.820;2023-05-10T08:44:45;17.50;99.90
7842;DHT22;3966;51.052;13.820;2023-05-10T08:47:15;17.60;99.90
7842;DHT22;3966;51.052;13.820;2023-05-10T08:49:41;17.60;99.90
7842;DHT22;3966;51.052;13.820;2023-05-10T08:52:08;17.70;99.90
7842;DHT22;3966;51.052;13.820;2023-05-10T08:54:36;17.80;99.90
7842;DHT22;3966;51.052;13.820;2023-05-10T08:57:02;17.80;99.90
7842;DHT22;3966;51.052;13.820;2023-05-10T08:59:28;17.80;99.90
7842;DHT22;3966;51.052;13.820;2023-05-10T09:01:57;17.90;99.90
7842;DHT22;3966;51.052;13.820;2023-05-10T09:04:23;17.90;99.90
7842;DHT22;3966;51.052;13.820;2023-05-10T09:06:48;18.00;99.90
7842;DHT22;3966;51.052;13.820;2023-05-10T09:09:15;18.10;99.90
7842;DHT22;3966;51.052;13.820;2023-05-10T09:11:41;18.20;99.90
7842;DHT22;3966;51.052;13.820;2023-05-10T09:14:07;18.20;99.90
7842;DHT22;3966;51.052;13.820;2023-05-10T09:16:34;18.30;99.90
7842;DHT22;3966;51.052;13.820;2023-05-10T09:19:00;18.40;99.90
7842;DHT22;3966;51.052;13.820;2023-05-10T09:21:26;18.40;99.90
7842;DHT22;3966;51.052;13.820;2023-05-10T09:23:52;18.50;99.90
7842;DHT22;3966;51.052;13.820;2023-05-10T09:26:22;18.70;99.90
7842;DHT22;3966;51.052;13.820;2023-05-10T09:28:56;18.80;99.90
7842;DHT22;3966;51.052;13.820;2023-05-10T09:31:22;18.80;99.90
7842;DHT22;3966;51.052;13.820;2023-05-10T09:33:50;18.80;99.90
7842;DHT22;3966;51.052;13.820;2023-05-10T09:36:16;18.80;99.90
7842;DHT22;3966;51.052;13.820;2023-05-10T09:38:49;18.90;99.90
7842;DHT22;3966;51.052;13.820;2023-05-10T09:41:20;18.90;99.90
7842;DHT22;3966;51.052;13.820;2023-05-10T09:43:46;19.00;99.90
7842;DHT22;3966;51.052;13.820;2023-05-10T09:46:12;19.10;99.50
7842;DHT22;3966;51.052;13.820;2023-05-10T09:48:42;19.10;98.70
7842;DHT22;3966;51.052;13.820;2023-05-10T09:51:08;19.30;98.70
7842;DHT22;3966;51.052;13.820;2023-05-10T09:53:34;19.40;98.40
7842;DHT22;3966;51.052;13.820;2023-05-10T09:55:59;19.40;98.10
7842;DHT22;3966;51.052;13.820;2023-05-10T09:58:25;19.50;97.30
7842;DHT22;3966;51.052;13.820;2023-05-10T10:00:51;19.60;98.10
7842;DHT22;3966;51.052;13.820;2023-05-10T10:03:19;19.70;96.60
7842;DHT22;3966;51.052;13.820;2023-05-10T10:05:46;19.90;96.60
7842;DHT22;3966;51.052;13.820;2023-05-10T10:08:13;20.00;95.50
7842;DHT22;3966;51.052;13.820;2023-05-10T10:10:39;20.10;95.40
7842;DHT22;3966;51.052;13.820;2023-05-10T10:13:10;20.10;93.70
7842;DHT22;3966;51.052;13.820;2023-05-10T10:15:36;20.20;94.40
7842;DHT22;3966;51.052;13.820;2023-05-10T10:18:02;20.50;93.30
7842;DHT22;3966;51.052;13.820;2023-05-10T10:20:31;20.50;93.10
7842;DHT22;3966;51.052;13.820;2023-05-10T10:22:57;20.60;93.90
7842;DHT22;3966;51.052;13.820;2023-05-10T10:25:22;20.70;91.80
7842;DHT22;3966;51.052;13.820;2023-05-10T10:30:41;20.80;92.20
7842;DHT22;3966;51.052;13.820;2023-05-10T10:35:36;21.10;91.50
7842;DHT22;3966;51.052;13.820;2023-05-10T10:38:02;21.30;90.70
7842;DHT22;3966;51.052;13.820;2023-05-10T10:40:32;21.40;90.40
7842;DHT22;3966;51.052;13.820;2023-05-10T10:43:24;21.30;90.30
7842;DHT22;3966;51.052;13.820;2023-05-10T10:46:13;21.30;90.80
7842;DHT22;3966;51.052;13.820;2023-05-10T10:48:40;21.60;90.60
7842;DHT22;3966;51.052;13.820;2023-05-10T10:51:06;21.60;89.40
7842;DHT22;3966;51.052;13.820;2023-05-10T10:53:32;21.60;87.90
7842;DHT22;3966;51.052;13.820;2023-05-10T10:56:10;21.60;89.30
7842;DHT22;3966;51.052;13.820;2023-05-10T10:58:39;21.60;88.50
7842;DHT22;3966;51.052;13.820;2023-05-10T11:01:16;21.70;88.80
7842;DHT22;3966;51.052;13.820;2023-05-10T11:06:30;21.80;89.00
7842;DHT22;3966;51.052;13.820;2023-05-10T11:09:10;21.90;87.10
7842;DHT22;3966;51.052;13.820;2023-05-10T11:11:48;21.80;88.00
7842;DHT22;3966;51.052;13.820;2023-05-10T11:14:14;22.10;87.60
7842;DHT22;3966;51.052;13.820;2023-05-10T11:16:45;22.30;86.70
7842;DHT22;3966;51.052;13.820;2023-05-10T11:19:12;22.50;85.30
7842;DHT22;3966;51.052;13.820;2023-05-10T11:21:51;22.50;84.00
7842;DHT22;3966;51.052;13.820;2023-05-10T11:24:21;22.50;83.30
7842;DHT22;3966;51.052;13.820;2023-05-10T11:26:50;22.60;82.70
7842;DHT22;3966;51.052;13.820;2023-05-10T11:29:16;22.70;83.80
7842;DHT22;3966;51.052;13.820;2023-05-10T11:31:45;22.70;81.20
7842;DHT22;3966;51.052;13.820;2023-05-10T11:36:54;22.90;80.10
7842;DHT22;3966;51.052;13.820;2023-05-10T11:39:21;23.00;78.80
7842;DHT22;3966;51.052;13.820;2023-05-10T11:41:50;23.20;79.70
7842;DHT22;3966;51.052;13.820;2023-05-10T11:44:15;23.50;77.40
7842;DHT22;3966;51.052;13.820;2023-05-10T11:46:41;23.60;76.40
7842;DHT22;3966;51.052;13.820;2023-05-10T11:49:07;23.70;76.70
7842;DHT22;3966;51.052;13.820;2023-05-10T11:51:34;23.80;74.90
7842;DHT22;3966;51.052;13.820;2023-05-10T11:54:05;23.80;75.30
7842;DHT22;3966;51.052;13.820;2023-05-10T11:56:32;23.80;75.00
7842;DHT22;3966;51.052;13.820;2023-05-10T11:58:58;23.90;76.10
7842;DHT22;3966;51.052;13.820;2023-05-10T12:01:26;23.80;74.60
7842;DHT22;3966;51.052;13.820;2023-05-10T12:03:53;23.60;75.20
7842;DHT22;3966;51.052;13.820;2023-05-10T12:06:20;23.70;76.10
7842;DHT22;3966;51.052;13.820;2023-05-10T12:08:47;23.90;75.90
7842;DHT22;3966;51.052;13.820;2023-05-10T12:11:14;24.10;76.90
7842;DHT22;3966;51.052;13.820;2023-05-10T12:13:43;24.30;75.60
7842;DHT22;3966;51.052;13.820;2023-05-10T12:16:23;24.40;74.20
7842;DHT22;3966;51.052;13.820;2023-05-10T12:18:54;24.30;74.40
7842;DHT22;3966;51.052;13.820;2023-05-10T12:21:21;24.50;72.60
7842;DHT22;3966;51.052;13.820;2023-05-10T12:23:51;24.50;72.40
7842;DHT22;3966;51.052;13.820;2023-05-10T12:26:17;24.70;69.40
7842;DHT22;3966;51.052;13.820;2023-05-10T12:28:43;24.60;73.40
7842;DHT22;3966;51.052;13.820;2023-05-10T12:31:09;24.80;72.20
7842;DHT22;3966;51.052;13.820;2023-05-10T12:33:43;25.40;72.40
7842;DHT22;3966;51.052;13.820;2023-05-10T12:36:11;25.40;71.90
7842;DHT22;3966;51.052;13.820;2023-05-10T12:38:41;25.10;68.60
7842;DHT22;3966;51.052;13.820;2023-05-10T12:41:10;25.30;69.00
7842;DHT22;3966;51.052;13.820;2023-05-10T12:43:36;25.00;69.40
7842;DHT22;3966;51.052;13.820;2023-05-10T12:46:10;25.00;68.20
7842;DHT22;3966;51.052;13.820;2023-05-10T12:48:37;25.20;68.20
7842;DHT22;3966;51.052;13.820;2023-05-10T12:51:04;25.00;69.90
7842;DHT22;3966;51.052;13.820;2023-05-10T12:53:30;25.30;67.20
7842;DHT22;3966;51.052;13.820;2023-05-10T12:55:56;25.70;64.30
7842;DHT22;3966;51.052;13.820;2023-05-10T12:58:22;25.20;65.90
7842;DHT22;3966;51.052;13.820;2023-05-10T13:00:48;25.20;66.70
7842;DHT22;3966;51.052;13.820;2023-05-10T13:03:13;25.40;66.10
7842;DHT22;3966;51.052;13.820;2023-05-10T13:05:40;25.30;66.10
7842;DHT22;3966;51.052;13.820;2023-05-10T13:08:06;25.30;66.50
7842;DHT22;3966;51.052;13.820;2023-05-10T13:10:32;25.40;65.40
7842;DHT22;3966;51.052;13.820;2023-05-10T13:12:58;25.40;66.70
7842;DHT22;3966;51.052;13.820;2023-05-10T13:15:24;25.60;66.10
7842;DHT22;3966;51.052;13.820;2023-05-10T13:17:50;25.40;67.80
7842;DHT22;3966;51.052;13.820;2023-05-10T13:20:16;25.10;68.20
7842;DHT22;3966;51.052;13.820;2023-05-10T13:22:43;25.30;68.60
7842;DHT22;3966;51.052;13.820;2023-05-10T13:25:09;25.40;67.80
7842;DHT22;3966;51.052;13.820;2023-05-10T13:27:35;25.20;69.30
7842;DHT22;3966;51.052;13.820;2023-05-10T13:30:02;25.40;68.60
7842;DHT22;3966;51.052;13.820;2023-05-10T13:32:28;25.50;66.80
7842;DHT22;3966;51.052;13.820;2023-05-10T13:34:55;25.70;66.80
7842;DHT22;3966;51.052;13.820;2023-05-10T13:37:20;25.30;68.00
7842;DHT22;3966;51.052;13.820;2023-05-10T13:39:46;25.60;67.50
7842;DHT22;3966;51.052;13.820;2023-05-10T13:42:12;25.70;66.20
7842;DHT22;3966;51.052;13.820;2023-05-10T13:44:38;25.10;67.60
7842;DHT22;3966;51.052;13.820;2023-05-10T13:47:04;24.90;67.80
7842;DHT22;3966;51.052;13.820;2023-05-10T13:49:30;24.60;68.50
7842;DHT22;3966;51.052;13.820;2023-05-10T13:51:56;24.30;67.30
7842;DHT22;3966;51.052;13.820;2023-05-10T13:54:21;23.40;69.80
7842;DHT22;3966;51.052;13.820;2023-05-10T13:56:47;23.30;71.60
7842;DHT22;3966;51.052;13.820;2023-05-10T13:59:14;23.80;71.00
7842;DHT22;3966;51.052;13.820;2023-05-10T14:01:40;24.30;69.40
7842;DHT22;3966;51.052;13.820;2023-05-10T14:04:06;24.30;69.60
7842;DHT22;3966;51.052;13.820;2023-05-10T14:06:35;24.40;71.10
7842;DHT22;3966;51.052;13.820;2023-05-10T14:09:02;24.40;69.30
7842;DHT22;3966;51.052;13.820;2023-05-10T14:11:27;24.60;71.30
7842;DHT22;3966;51.052;13.820;2023-05-10T14:13:53;25.20;69.20
7842;DHT22;3966;51.052;13.820;2023-05-10T14:16:19;25.30;68.90
7842;DHT22;3966;51.052;13.820;2023-05-10T14:18:45;25.50;66.90
7842;DHT22;3966;51.052;13.820;2023-05-10T14:21:11;25.40;67.70
7842;DHT22;3966;51.052;13.820;2023-05-10T14:23:37;25.80;65.90
7842;DHT22;3966;51.052;13.820;2023-05-10T14:26:03;25.50;67.00
7842;DHT22;3966;51.052;13.820;2023-05-10T14:28:28;25.40;67.00
7842;DHT22;3966;51.052;13.820;2023-05-10T14:30:54;24.60;66.60
7842;DHT22;3966;51.052;13.820;2023-05-10T14:33:20;23.90;69.20
7842;DHT22;3966;51.052;13.820;2023-05-10T14:35:46;23.70;70.80
7842;DHT22;3966;51.052;13.820;2023-05-10T14:38:12;24.00;70.20
7842;DHT22;3966;51.052;13.820;2023-05-10T14:40:38;24.10;69.20
7842;DHT22;3966;51.052;13.820;2023-05-10T14:43:04;24.20;68.90
7842;DHT22;3966;51.052;13.820;2023-05-10T14:45:29;23.90;69.10
7842;DHT22;3966;51.052;13.820;2023-05-10T14:47:56;23.80;70.00
7842;DHT22;3966;51.052;13.820;2023-05-10T14:50:22;23.60;70.10
7842;DHT22;3966;51.052;13.820;2023-05-10T14:52:48;23.50;70.30
7842;DHT22;3966;51.052;13.820;2023-05-10T14:55:15;23.20;73.20
7842;DHT22;3966;51.052;13.820;2023-05-10T14:57:40;23.10;73.20
7842;DHT22;3966;51.052;13.820;2023-05-10T15:00:07;23.10;73.10
7842;DHT22;3966;51.052;13.820;2023-05-10T15:02:32;23.10;71.50
7842;DHT22;3966;51.052;13.820;2023-05-10T15:04:58;23.30;71.90
7842;DHT22;3966;51.052;13.820;2023-05-10T15:07:24;23.00;71.40
7842;DHT22;3966;51.052;13.820;2023-05-10T15:09:50;22.60;71.90
7842;DHT22;3966;51.052;13.820;2023-05-10T15:12:17;22.60;73.10
7842;DHT22;3966;51.052;13.820;2023-05-10T15:14:43;22.30;73.00
7842;DHT22;3966;51.052;13.820;2023-05-10T15:17:09;22.30;74.40
7842;DHT22;3966;51.052;13.820;2023-05-10T15:19:35;22.10;74.80
7842;DHT22;3966;51.052;13.820;2023-05-10T15:22:02;21.70;74.80
7842;DHT22;3966;51.052;13.820;2023-05-10T15:24:28;21.50;79.90
7842;DHT22;3966;51.052;13.820;2023-05-10T15:26:54;21.50;85.30
7842;DHT22;3966;51.052;13.820;2023-05-10T15:29:19;21.30;90.00
7842;DHT22;3966;51.052;13.820;2023-05-10T15:31:47;20.80;92.90
7842;DHT22;3966;51.052;13.820;2023-05-10T15:34:13;20.70;95.90
7842;DHT22;3966;51.052;13.820;2023-05-10T15:36:39;20.50;98.70
7842;DHT22;3966;51.052;13.820;2023-05-10T15:39:05;20.60;99.90
7842;DHT22;3966;51.052;13.820;2023-05-10T15:41:31;20.40;99.90
7842;DHT22;3966;51.052;13.820;2023-05-10T15:43:57;20.40;99.90
7842;DHT22;3966;51.052;13.820;2023-05-10T15:46:25;20.50;99.90
7842;DHT22;3966;51.052;13.820;2023-05-10T15:48:51;20.40;99.90
7842;DHT22;3966;51.052;13.820;2023-05-10T15:51:17;20.30;99.90
7842;DHT22;3966;51.052;13.820;2023-05-10T15:53:44;19.90;99.90
7842;DHT22;3966;51.052;13.820;2023-05-10T15:56:10;19.80;99.90
7842;DHT22;3966;51.052;13.820;2023-05-10T15:58:37;19.80;99.90
7842;DHT22;3966;51.052;13.820;2023-05-10T16:01:03;19.80;99.90
7842;DHT22;3966;51.052;13.820;2023-05-10T16:03:30;19.80;99.90
7842;DHT22;3966;51.052;13.820;2023-05-10T16:05:56;19.80;99.90
7842;DHT22;3966;51.052;13.820;2023-05-10T16:08:22;19.80;99.90
7842;DHT22;3966;51.052;13.820;2023-05-10T16:10:49;19.80;99.90
7842;DHT22;3966;51.052;13.820;2023-05-10T16:13:15;19.80;99.90
7842;DHT22;3966;51.052;13.820;2023-05-10T16:15:41;19.60;99.90
7842;DHT22;3966;51.052;13.820;2023-05-10T16:18:07;19.60;99.90
7842;DHT22;3966;51.052;13.820;2023-05-10T16:20:34;19.50;99.90
7842;DHT22;3966;51.052;13.820;2023-05-10T16:23:04;19.40;99.90